Time;durP1;ratioP1;P1;durP2;ratioP2;P2;SDS_P1;SDS_P2;PMS_P1;PMS_P2;Temp;Humidity;BMP_temperature;BMP_pressure;BME280_temperature;BME280_humidity;BME280_pressure;Samples;Min_cycle;Max_cycle;Signal;HPM_P1;HPM_P2
2023/06/04 00:02:20;;;;;;;3.00;1.60;;;24.70;42.50;;;;;;5050852;28;20068;-66
2023/06/04 00:04:46;;;;;;;5.03;2.00;;;24.50;42.60;;;;;;5050915;28;20065;-65
2023/06/04 00:07:12;;;;;;;4.03;1.60;;;24.70;42.70;;;;;;5050779;28;20123;-66
2023/06/04 00:09:38;;;;;;;2.05;1.30;;;24.70;42.70;;;;;;5050842;28;20516;-66
2023/06/04 00:12:04;;;;;;;3.08;1.52;;;24.70;42.80;;;;;;5050985;28;20099;-66
2023/06/04 00:14:30;;;;;;;5.53;1.95;;;24.70;42.90;;;;;;5050519;28;20029;-66
2023/06/04 00:16:56;;;;;;;3.30;1.23;;;24.70;42.90;;;;;;5050798;28;20029;-66
2023/06/04 00:19:22;;;;;;;3.20;1.38;;;24.60;42.90;;;;;;5049460;28;20396;-66
2023/06/04 00:21:48;;;;;;;1.55;1.40;;;24.60;42.90;;;;;;5050530;28;20059;-66
2023/06/04 00:24:15;;;;;;;2.42;1.50;;;24.50;42.90;;;;;;5049357;28;20065;-66
2023/06/04 00:26:41;;;;;;;1.83;1.20;;;24.60;42.90;;;;;;5050556;28;20484;-66
2023/06/04 00:29:07;;;;;;;2.67;1.60;;;24.50;43.00;;;;;;5050459;28;20060;-65
2023/06/04 00:31:33;;;;;;;3.28;1.45;;;24.60;43.00;;;;;;5049281;28;20465;-65
2023/06/04 00:33:59;;;;;;;4.18;1.50;;;24.50;43.00;;;;;;5048525;28;20045;-66
2023/06/04 00:36:25;;;;;;;2.70;1.48;;;24.50;43.00;;;;;;5050394;28;20082;-66
2023/06/04 00:38:51;;;;;;;2.65;1.58;;;24.40;43.00;;;;;;5050283;28;20022;-66
2023/06/04 00:41:17;;;;;;;7.60;1.35;;;24.50;43.20;;;;;;5050498;28;20041;-66
2023/06/04 00:43:45;;;;;;;2.78;1.00;;;24.40;43.20;;;;;;5049372;28;20036;-67
2023/06/04 00:46:17;;;;;;;2.55;1.55;;;24.50;43.40;;;;;;5049148;28;20037;-66
2023/06/04 00:48:44;;;;;;;1.48;1.13;;;24.30;43.30;;;;;;5048935;28;20033;-66
2023/06/04 00:51:12;;;;;;;1.88;1.50;;;24.40;43.40;;;;;;5049271;28;20388;-65
2023/06/04 00:53:38;;;;;;;1.42;1.33;;;24.50;43.50;;;;;;5049100;28;20083;-66
2023/06/04 00:56:05;;;;;;;2.95;1.50;;;24.40;43.50;;;;;;5051121;28;20036;-66
2023/06/04 00:58:33;;;;;;;2.92;1.63;;;24.50;43.60;;;;;;5052591;28;20492;-65
2023/06/04 01:01:03;;;;;;;2.83;1.42;;;24.40;43.50;;;;;;5052554;28;20041;-66
2023/06/04 01:03:34;;;;;;;2.50;1.25;;;24.40;43.60;;;;;;5053881;28;20028;-66
2023/06/04 01:06:12;;;;;;;4.25;1.38;;;24.30;43.60;;;;;;5052551;28;20433;-65
2023/06/04 01:08:43;;;;;;;2.25;1.60;;;24.40;43.60;;;;;;5052411;28;20041;-66
2023/06/04 01:11:09;;;;;;;3.42;1.33;;;24.40;43.70;;;;;;5053711;28;20436;-67
2023/06/04 01:13:35;;;;;;;2.63;1.30;;;24.30;43.70;;;;;;5071239;28;20182;-65
2023/06/04 01:16:01;;;;;;;4.78;1.55;;;24.40;43.70;;;;;;5071263;28;20068;-66
2023/06/04 01:18:28;;;;;;;3.80;1.45;;;24.40;43.70;;;;;;5054189;28;20119;-66
2023/06/04 01:21:04;;;;;;;3.83;1.33;;;24.30;43.80;;;;;;5070918;28;20121;-66
2023/06/04 01:24:00;;;;;;;4.53;1.33;;;24.30;43.80;;;;;;5071104;28;20115;-66
2023/06/04 01:26:28;;;;;;;2.90;1.83;;;24.40;43.90;;;;;;5037807;28;20041;-66
2023/06/04 01:28:56;;;;;;;5.07;1.35;;;24.30;43.90;;;;;;5054089;28;20500;-66
2023/06/04 01:31:23;;;;;;;2.83;1.27;;;24.30;43.90;;;;;;5053866;28;20553;-66
2023/06/04 01:33:58;;;;;;;3.00;1.20;;;24.10;43.80;;;;;;5050848;28;20091;-66
2023/06/04 01:36:24;;;;;;;1.75;1.30;;;24.20;43.80;;;;;;5050854;28;20045;-66
2023/06/04 01:38:51;;;;;;;3.42;1.33;;;24.20;43.80;;;;;;5050472;28;20120;-66
2023/06/04 01:41:17;;;;;;;3.38;1.27;;;24.20;43.90;;;;;;5048129;28;20043;-64
2023/06/04 01:43:43;;;;;;;1.50;1.40;;;24.30;44.20;;;;;;5033113;28;20048;-66
2023/06/04 01:46:10;;;;;;;4.20;1.45;;;24.30;44.10;;;;;;5033327;28;20041;-65
2023/06/04 01:48:37;;;;;;;3.50;1.38;;;24.30;44.10;;;;;;5031782;28;20029;-66
2023/06/04 01:51:03;;;;;;;4.78;1.27;;;24.20;44.10;;;;;;5033094;28;20033;-66
2023/06/04 01:53:30;;;;;;;1.98;1.50;;;24.10;44.10;;;;;;5015365;28;20044;-65
2023/06/04 01:55:57;;;;;;;3.45;1.92;;;24.30;44.30;;;;;;5015297;28;20096;-66
2023/06/04 01:58:26;;;;;;;3.95;1.48;;;24.20;44.20;;;;;;5048419;28;20036;-65
2023/06/04 02:00:54;;;;;;;1.55;1.27;;;24.20;44.20;;;;;;5032876;28;20120;-66
2023/06/04 02:03:21;;;;;;;2.67;1.30;;;24.20;44.10;;;;;;5031665;28;20060;-66
2023/06/04 02:05:48;;;;;;;4.07;1.65;;;24.20;44.10;;;;;;5032893;28;20354;-65
2023/06/04 02:08:25;;;;;;;3.03;1.02;;;24.20;44.10;;;;;;5032279;28;20100;-66
2023/06/04 02:10:51;;;;;;;1.77;1.65;;;24.20;44.10;;;;;;5032826;28;20091;-66
2023/06/04 02:13:17;;;;;;;5.50;1.10;;;24.20;44.20;;;;;;5015057;28;20033;-66
2023/06/04 02:15:43;;;;;;;2.83;1.85;;;24.10;44.10;;;;;;5032656;28;20068;-66
2023/06/04 02:18:20;;;;;;;1.70;1.27;;;24.10;44.20;;;;;;5032896;28;20121;-66
2023/06/04 02:20:48;;;;;;;6.68;1.38;;;24.10;44.20;;;;;;5052147;28;20471;-66
2023/06/04 02:23:16;;;;;;;2.42;1.48;;;24.10;44.20;;;;;;5034535;28;20537;-66
2023/06/04 02:25:45;;;;;;;1.50;1.27;;;24.00;44.20;;;;;;5052091;28;20060;-65
2023/06/04 02:28:12;;;;;;;1.33;1.20;;;24.00;44.20;;;;;;5051122;28;20079;-66
2023/06/04 02:30:38;;;;;;;3.25;1.02;;;24.00;44.20;;;;;;5034453;28;20035;-66
2023/06/04 02:33:05;;;;;;;1.50;1.10;;;24.10;44.30;;;;;;5051996;28;20037;-66
2023/06/04 02:35:32;;;;;;;1.58;1.17;;;23.90;44.30;;;;;;5052269;28;20079;-65
2023/06/04 02:37:58;;;;;;;1.67;1.00;;;24.10;44.40;;;;;;5050607;28;20037;-66
2023/06/04 02:40:25;;;;;;;3.30;1.58;;;23.90;44.40;;;;;;5052128;28;20550;-66
2023/06/04 02:42:53;;;;;;;2.63;1.42;;;24.00;44.40;;;;;;5051821;28;20043;-65
2023/06/04 02:45:20;;;;;;;1.48;1.25;;;24.00;44.40;;;;;;5049764;28;20098;-66
2023/06/04 02:47:46;;;;;;;1.83;1.10;;;23.90;44.40;;;;;;5051840;28;20052;-66
2023/06/04 02:50:14;;;;;;;2.72;1.60;;;24.10;44.50;;;;;;5034279;28;20041;-66
2023/06/04 02:52:40;;;;;;;1.80;1.30;;;24.00;44.40;;;;;;5051882;28;20033;-66
2023/06/04 02:55:07;;;;;;;4.05;1.48;;;24.00;44.40;;;;;;5050543;28;20044;-66
2023/06/04 02:57:33;;;;;;;2.78;1.42;;;23.90;44.40;;;;;;5051691;28;20029;-66
2023/06/04 02:59:59;;;;;;;5.10;1.42;;;24.00;44.40;;;;;;5033544;28;20068;-66
2023/06/04 03:02:25;;;;;;;3.20;1.48;;;24.10;44.50;;;;;;5050198;28;20071;-65
2023/06/04 03:04:54;;;;;;;1.48;1.05;;;24.10;44.40;;;;;;5050778;28;20029;-65
2023/06/04 03:07:22;;;;;;;2.20;1.20;;;24.10;44.50;;;;;;5017443;28;20378;-66
2023/06/04 03:09:49;;;;;;;2.42;1.10;;;24.00;44.40;;;;;;5051305;28;20140;-66
2023/06/04 03:12:15;;;;;;;2.58;1.38;;;23.90;44.40;;;;;;5051464;28;20039;-66
2023/06/04 03:14:42;;;;;;;3.30;1.10;;;23.90;44.40;;;;;;5033354;28;20108;-66
2023/06/04 03:17:10;;;;;;;4.47;1.42;;;23.90;44.40;;;;;;5033523;28;20033;-66
2023/06/04 03:19:37;;;;;;;3.13;1.33;;;24.00;44.40;;;;;;5050328;28;20084;-66
2023/06/04 03:22:07;;;;;;;3.80;1.45;;;23.90;44.40;;;;;;5033402;28;20467;-66
2023/06/04 03:24:35;;;;;;;5.03;1.67;;;24.00;44.40;;;;;;5049992;28;20037;-66
2023/06/04 03:27:03;;;;;;;1.20;1.10;;;24.00;44.30;;;;;;5051434;28;20072;-66
2023/06/04 03:29:33;;;;;;;2.50;1.20;;;24.10;44.30;;;;;;5049751;28;20043;-66
2023/06/04 03:32:02;;;;;;;3.20;1.58;;;23.90;44.40;;;;;;5049588;28;20128;-66
2023/06/04 03:34:31;;;;;;;4.13;1.48;;;24.00;44.30;;;;;;5033403;28;20029;-66
2023/06/04 03:36:57;;;;;;;3.13;1.30;;;24.10;44.40;;;;;;5049629;28;20382;-66
2023/06/04 03:39:24;;;;;;;1.55;1.10;;;24.00;44.30;;;;;;5049832;28;20039;-66
2023/06/04 03:41:51;;;;;;;2.40;1.33;;;24.10;44.30;;;;;;5032748;28;20033;-66
2023/06/04 03:44:20;;;;;;;2.35;1.45;;;24.00;44.10;;;;;;5049679;28;20068;-66
2023/06/04 03:46:46;;;;;;;2.03;1.13;;;24.10;44.30;;;;;;5049907;28;20108;-65
2023/06/04 03:49:13;;;;;;;4.18;1.45;;;24.30;44.00;;;;;;5049589;28;20366;-65
2023/06/04 03:51:41;;;;;;;2.65;1.70;;;24.40;43.60;;;;;;5049716;28;20091;-67
2023/06/04 03:54:08;;;;;;;4.25;1.85;;;24.40;43.50;;;;;;5033465;28;20044;-66
2023/06/04 03:56:36;;;;;;;2.30;1.38;;;24.60;43.30;;;;;;5049821;28;20033;-67
2023/06/04 03:59:02;;;;;;;6.50;2.05;;;24.70;43.30;;;;;;5048027;28;20521;-66
2023/06/04 04:01:28;;;;;;;1.50;1.25;;;24.60;43.10;;;;;;5031860;28;20128;-66
2023/06/04 04:03:56;;;;;;;1.52;1.42;;;24.70;43.00;;;;;;5031715;28;20511;-66
2023/06/04 04:06:22;;;;;;;1.10;1.00;;;24.60;42.80;;;;;;5048560;28;20041;-66
2023/06/04 04:08:49;;;;;;;3.70;1.70;;;24.70;42.90;;;;;;5031705;28;20049;-68
2023/06/04 04:11:17;;;;;;;6.97;2.00;;;24.70;44.80;;;;;;5031908;28;20119;-68
2023/06/04 04:13:46;;;;;;;2.55;1.23;;;25.10;46.90;;;;;;5048372;28;20045;-67
2023/06/04 04:16:13;;;;;;;3.80;1.50;;;25.60;47.30;;;;;;5031880;28;20037;-67
2023/06/04 04:18:43;;;;;;;2.58;2.28;;;25.70;46.20;;;;;;5015004;28;20068;-68
2023/06/04 04:21:10;;;;;;;4.03;1.85;;;25.60;41.40;;;;;;5031530;28;20049;-68
2023/06/04 04:23:41;;;;;;;2.53;1.55;;;25.60;40.50;;;;;;5015717;28;20037;-68
2023/06/04 04:26:09;;;;;;;3.00;1.73;;;25.50;40.50;;;;;;5031592;28;20079;-69
2023/06/04 04:28:36;;;;;;;5.60;1.80;;;25.40;40.20;;;;;;5031691;28;20052;-68
2023/06/04 04:31:02;;;;;;;3.20;1.63;;;25.50;40.40;;;;;;5049840;28;20561;-69
2023/06/04 04:33:32;;;;;;;4.72;1.77;;;25.50;39.90;;;;;;5035666;28;20045;-68
2023/06/04 04:36:00;;;;;;;3.95;2.10;;;25.40;39.60;;;;;;5035259;28;20041;-68
2023/06/04 04:38:28;;;;;;;3.42;1.90;;;25.50;39.40;;;;;;5035339;28;20480;-69
2023/06/04 04:41:01;;;;;;;4.10;2.10;;;25.40;39.10;;;;;;5034843;28;20052;-68
2023/06/04 04:43:30;;;;;;;4.68;1.50;;;25.40;38.80;;;;;;5035303;28;20068;-70
2023/06/04 04:45:57;;;;;;;3.67;2.10;;;25.50;38.10;;;;;;5035324;28;20045;-70
2023/06/04 04:48:24;;;;;;;4.93;1.70;;;25.40;37.00;;;;;;5068701;28;20147;-70
2023/06/04 04:50:50;;;;;;;2.33;1.55;;;25.50;35.80;;;;;;5051502;28;20139;-69
2023/06/04 04:53:16;;;;;;;3.80;2.25;;;25.50;34.90;;;;;;5035151;28;20134;-69
2023/06/04 04:55:42;;;;;;;4.35;2.30;;;25.40;34.40;;;;;;5051503;28;20088;-68
2023/06/04 04:58:09;;;;;;;4.43;1.83;;;25.50;33.60;;;;;;5035102;28;20029;-68
2023/06/04 05:00:35;;;;;;;12.20;1.90;;;25.50;35.70;;;;;;5034765;28;20037;-70
2023/06/04 05:03:02;;;;;;;4.60;1.73;;;25.40;35.40;;;;;;5032485;28;20041;-67
2023/06/04 05:05:28;;;;;;;2.40;2.10;;;25.30;35.50;;;;;;5041604;28;20094;-69
2023/06/04 05:07:54;;;;;;;8.45;2.08;;;25.40;36.10;;;;;;5052400;28;20032;-69
2023/06/04 05:10:26;;;;;;;7.83;1.60;;;25.30;36.40;;;;;;5035753;28;20121;-68
2023/06/04 05:12:55;;;;;;;3.13;1.95;;;25.30;36.50;;;;;;5052454;28;20036;-69
2023/06/04 05:15:24;;;;;;;3.92;1.85;;;25.30;36.80;;;;;;5052667;28;20129;-69
2023/06/04 05:17:53;;;;;;;2.95;1.75;;;25.30;36.90;;;;;;5036169;28;20063;-69
2023/06/04 05:20:20;;;;;;;6.63;2.03;;;25.30;36.90;;;;;;5053387;28;20532;-69
2023/06/04 05:22:47;;;;;;;3.08;2.38;;;25.30;37.20;;;;;;5052295;28;20045;-68
2023/06/04 05:25:14;;;;;;;7.70;2.33;;;25.40;37.30;;;;;;5052429;28;20104;-69
2023/06/04 05:27:41;;;;;;;6.00;1.92;;;25.30;37.30;;;;;;5052179;28;20037;-71
2023/06/04 05:30:09;;;;;;;2.60;1.88;;;25.40;37.40;;;;;;5051872;28;20060;-70
2023/06/04 05:32:40;;;;;;;6.00;1.60;;;25.40;37.90;;;;;;5051819;28;20033;-70
2023/06/04 05:35:09;;;;;;;2.80;1.90;;;25.30;36.90;;;;;;5052502;28;20082;-66
2023/06/04 05:37:37;;;;;;;3.80;2.08;;;25.50;36.00;;;;;;5052190;28;20045;-66
2023/06/04 05:40:05;;;;;;;2.88;1.85;;;25.30;35.50;;;;;;5051685;28;20052;-66
2023/06/04 05:42:33;;;;;;;7.72;1.55;;;25.50;39.10;;;;;;5050979;28;20082;-68
2023/06/04 05:44:59;;;;;;;11.35;2.67;;;25.80;38.10;;;;;;5051956;28;20051;-68
2023/06/04 05:47:28;;;;;;;6.65;2.20;;;25.90;38.90;;;;;;5053030;28;20076;-68
2023/06/04 05:49:55;;;;;;;6.80;1.73;;;25.70;36.50;;;;;;5051258;28;20037;-66
2023/06/04 05:52:21;;;;;;;4.40;2.25;;;25.70;34.60;;;;;;5051595;28;20450;-66
2023/06/04 05:54:47;;;;;;;2.22;1.45;;;25.60;33.70;;;;;;5051682;28;20029;-65
2023/06/04 05:57:14;;;;;;;4.07;1.38;;;25.50;34.30;;;;;;5051856;28;20029;-67
2023/06/04 05:59:40;;;;;;;3.63;1.73;;;25.50;34.70;;;;;;5050469;28;20025;-67
2023/06/04 06:02:09;;;;;;;1.75;1.50;;;25.50;34.80;;;;;;5051987;28;20455;-66
2023/06/04 06:04:36;;;;;;;2.13;1.45;;;25.40;35.50;;;;;;5061270;28;20044;-67
2023/06/04 06:07:02;;;;;;;1.30;1.20;;;25.40;36.70;;;;;;5057305;28;20029;-67
2023/06/04 06:09:28;;;;;;;1.70;0.95;;;25.40;36.40;;;;;;5055979;28;20032;-66
2023/06/04 06:11:54;;;;;;;2.65;1.35;;;25.40;36.10;;;;;;5047823;28;20132;-66
2023/06/04 06:14:20;;;;;;;1.67;1.25;;;25.50;36.20;;;;;;5032454;28;20045;-67
2023/06/04 06:16:46;;;;;;;2.28;1.50;;;25.40;36.00;;;;;;5051011;28;20105;-65
2023/06/04 06:19:13;;;;;;;3.05;1.63;;;25.40;36.10;;;;;;5062388;28;20040;-66
2023/06/04 06:21:39;;;;;;;1.75;1.20;;;25.60;36.20;;;;;;5068863;28;20041;-67
2023/06/04 06:24:05;;;;;;;1.77;1.15;;;25.50;36.30;;;;;;5070998;28;20040;-66
2023/06/04 06:26:33;;;;;;;1.30;1.00;;;25.50;36.80;;;;;;5060322;28;20060;-65
2023/06/04 06:29:00;;;;;;;1.95;0.85;;;25.60;37.20;;;;;;5050820;28;20122;-66
2023/06/04 06:31:27;;;;;;;3.75;1.02;;;25.40;35.60;;;;;;5068278;28;20040;-66
2023/06/04 06:33:53;;;;;;;5.07;1.98;;;25.60;35.20;;;;;;5066545;28;20029;-66
2023/06/04 06:36:19;;;;;;;3.10;1.33;;;25.70;36.40;;;;;;5065669;28;20708;-68
2023/06/04 06:38:46;;;;;;;7.20;2.17;;;25.70;36.40;;;;;;5063775;28;20052;-67
2023/06/04 06:41:12;;;;;;;6.53;1.65;;;25.60;36.30;;;;;;5070620;28;20041;-68
2023/06/04 06:43:38;;;;;;;1.33;1.23;;;25.60;35.90;;;;;;5062517;28;20393;-68
2023/06/04 06:46:04;;;;;;;3.63;1.45;;;25.80;35.40;;;;;;5055962;28;20120;-68
2023/06/04 06:48:30;;;;;;;1.55;1.20;;;25.70;34.40;;;;;;5067443;28;20037;-68
2023/06/04 06:50:56;;;;;;;3.35;2.10;;;25.70;33.50;;;;;;5054521;28;20047;-67
2023/06/04 06:53:22;;;;;;;1.00;0.70;;;25.70;33.70;;;;;;5042547;28;20036;-67
2023/06/04 06:55:48;;;;;;;2.10;1.38;;;25.70;32.80;;;;;;5051459;28;20082;-66
2023/06/04 06:58:15;;;;;;;0.98;0.80;;;25.70;32.00;;;;;;5052165;28;20028;-66
2023/06/04 07:00:41;;;;;;;2.92;1.13;;;25.70;30.60;;;;;;5055696;28;20028;-66
2023/06/04 07:03:08;;;;;;;0.90;0.90;;;25.70;31.80;;;;;;5071780;28;20036;-66
2023/06/04 07:05:34;;;;;;;2.38;0.90;;;25.70;31.60;;;;;;5065101;28;20055;-65
2023/06/04 07:08:01;;;;;;;4.85;1.08;;;25.60;30.80;;;;;;5062795;28;20115;-67
2023/06/04 07:10:27;;;;;;;1.75;0.80;;;25.70;29.50;;;;;;5059240;28;20127;-68
2023/06/04 07:12:53;;;;;;;5.88;0.88;;;25.70;31.20;;;;;;5040434;28;20063;-67
2023/06/04 07:15:19;;;;;;;0.75;0.75;;;25.70;30.40;;;;;;5051358;28;20037;-67
2023/06/04 07:17:46;;;;;;;1.70;0.80;;;25.80;29.80;;;;;;5036717;28;20116;-67
2023/06/04 07:20:11;;;;;;;2.47;0.98;;;25.80;29.80;;;;;;5043920;28;20064;-67
2023/06/04 07:22:38;;;;;;;1.40;1.00;;;25.70;29.40;;;;;;5070015;28;20036;-67
2023/06/04 07:25:06;;;;;;;0.70;0.68;;;25.60;29.50;;;;;;5051432;28;20135;-66
2023/06/04 07:27:34;;;;;;;1.80;0.73;;;25.50;29.70;;;;;;5051642;28;20036;-67
2023/06/04 07:30:00;;;;;;;1.70;0.70;;;25.70;30.80;;;;;;5055951;28;20028;-67
2023/06/04 07:32:27;;;;;;;2.35;0.85;;;25.70;30.10;;;;;;5063323;28;20041;-66
2023/06/04 07:34:53;;;;;;;2.47;0.75;;;25.60;30.30;;;;;;5062302;28;20021;-66
2023/06/04 07:37:19;;;;;;;1.20;1.10;;;25.70;30.40;;;;;;5049460;28;20564;-66
2023/06/04 07:39:45;;;;;;;3.45;0.77;;;25.60;30.10;;;;;;5051177;28;20044;-68
2023/06/04 07:42:11;;;;;;;2.42;1.17;;;25.50;30.20;;;;;;5049770;28;20029;-66
2023/06/04 07:44:40;;;;;;;3.42;0.70;;;25.50;30.00;;;;;;5050301;28;20542;-67
2023/06/04 07:47:06;;;;;;;2.55;1.10;;;25.50;29.60;;;;;;5065687;28;20458;-67
2023/06/04 07:49:32;;;;;;;0.95;0.90;;;25.40;30.00;;;;;;5058526;28;20032;-67
2023/06/04 07:51:58;;;;;;;0.85;0.85;;;25.60;31.70;;;;;;5063685;28;20038;-65
2023/06/04 07:54:24;;;;;;;3.08;0.73;;;25.40;31.30;;;;;;5067133;28;20154;-66
2023/06/04 07:56:55;;;;;;;0.80;0.77;;;25.60;32.10;;;;;;5050425;28;20039;-66
2023/06/04 07:59:24;;;;;;;5.30;0.90;;;25.60;32.80;;;;;;5048085;28;20501;-67
2023/06/04 08:01:51;;;;;;;0.60;0.60;;;25.60;32.80;;;;;;5048073;28;20059;-67
2023/06/04 08:04:18;;;;;;;2.40;0.90;;;25.60;32.00;;;;;;5048435;28;20049;-66
2023/06/04 08:06:44;;;;;;;0.88;0.65;;;25.70;31.80;;;;;;5051712;28;20504;-66
2023/06/04 08:09:11;;;;;;;1.35;0.98;;;25.70;30.80;;;;;;5052249;28;20033;-67
2023/06/04 08:11:39;;;;;;;1.25;1.15;;;25.70;32.00;;;;;;5051753;28;20110;-67
2023/06/04 08:14:05;;;;;;;2.70;1.02;;;25.70;31.90;;;;;;5052242;28;20041;-67
2023/06/04 08:16:32;;;;;;;4.88;0.88;;;25.60;31.20;;;;;;5036781;28;20049;-66
2023/06/04 08:19:18;;;;;;;1.80;1.17;;;25.70;30.40;;;;;;5019541;28;20052;-67
2023/06/04 08:21:47;;;;;;;0.82;0.70;;;25.60;32.20;;;;;;5016964;28;20038;-67
2023/06/04 08:24:33;;;;;;;1.63;0.77;;;25.70;31.80;;;;;;5034363;28;20045;-67
2023/06/04 08:27:12;;;;;;;3.15;0.90;;;25.60;31.80;;;;;;5034540;28;20065;-67
2023/06/04 08:29:50;;;;;;;1.58;0.73;;;25.70;32.60;;;;;;5034718;28;20041;-67
2023/06/04 08:32:36;;;;;;;1.45;1.15;;;25.70;30.20;;;;;;5049312;28;20041;-67
2023/06/04 08:35:09;;;;;;;3.28;0.80;;;25.70;29.70;;;;;;5054517;28;20041;-66
2023/06/04 08:37:36;;;;;;;0.68;0.68;;;25.70;31.70;;;;;;5054713;28;20040;-67
2023/06/04 08:40:04;;;;;;;0.60;0.60;;;25.70;31.00;;;;;;5054260;28;20469;-67
2023/06/04 08:42:34;;;;;;;1.17;0.90;;;25.60;30.20;;;;;;5054292;28;20041;-67
2023/06/04 08:45:00;;;;;;;0.95;0.90;;;25.60;31.70;;;;;;5054414;28;20117;-67
2023/06/04 08:47:29;;;;;;;1.50;0.77;;;25.60;33.00;;;;;;5054223;28;20033;-67
2023/06/04 08:49:59;;;;;;;1.85;0.80;;;25.60;33.50;;;;;;5054277;28;20033;-67
2023/06/04 08:52:26;;;;;;;1.17;0.70;;;25.60;33.50;;;;;;5054396;28;20060;-67
2023/06/04 08:54:55;;;;;;;1.17;0.57;;;25.60;33.60;;;;;;5052617;28;20040;-67
2023/06/04 08:57:21;;;;;;;0.70;0.70;;;25.50;32.90;;;;;;5054012;28;20037;-67
2023/06/04 08:59:47;;;;;;;2.13;1.42;;;25.50;33.10;;;;;;5054057;28;20037;-67
2023/06/04 09:02:17;;;;;;;2.20;0.98;;;25.70;33.30;;;;;;5053743;28;20061;-67
2023/06/04 09:04:44;;;;;;;3.85;0.80;;;25.50;32.50;;;;;;5053647;28;20025;-67
2023/06/04 09:07:13;;;;;;;1.77;0.80;;;25.50;33.10;;;;;;5053827;28;20047;-67
2023/06/04 09:09:40;;;;;;;2.42;1.02;;;25.50;33.50;;;;;;5053903;28;20033;-66
2023/06/04 09:12:11;;;;;;;1.40;0.70;;;25.60;32.90;;;;;;5053570;28;20083;-67
2023/06/04 09:14:37;;;;;;;1.52;1.00;;;25.60;33.80;;;;;;5053833;28;20560;-67
2023/06/04 09:17:03;;;;;;;1.15;1.08;;;25.60;31.90;;;;;;5051458;28;20033;-67
2023/06/04 09:19:29;;;;;;;1.00;1.00;;;25.60;33.20;;;;;;5053673;28;20049;-67
2023/06/04 09:21:58;;;;;;;0.88;0.80;;;25.60;32.30;;;;;;5053291;28;20126;-67
2023/06/04 09:24:38;;;;;;;2.05;1.05;;;25.60;31.20;;;;;;5053671;28;20365;-67
2023/06/04 09:27:11;;;;;;;0.85;0.70;;;25.60;34.10;;;;;;5052100;28;20045;-67
2023/06/04 09:29:37;;;;;;;0.85;0.85;;;25.60;32.20;;;;;;5052295;28;20048;-67
2023/06/04 09:32:03;;;;;;;0.73;0.70;;;25.60;31.60;;;;;;5053279;28;20485;-67
2023/06/04 09:34:30;;;;;;;3.97;1.05;;;25.40;32.10;;;;;;5053084;28;20037;-67
2023/06/04 09:36:56;;;;;;;1.77;0.80;;;25.40;32.60;;;;;;5053365;28;20029;-67
2023/06/04 09:39:23;;;;;;;0.70;0.70;;;25.40;34.60;;;;;;5053449;28;20370;-66
2023/06/04 09:42:02;;;;;;;1.30;1.20;;;25.50;32.10;;;;;;5053137;28;20025;-67
2023/06/04 09:44:42;;;;;;;1.45;0.80;;;25.50;35.10;;;;;;5052996;28;20041;-67
2023/06/04 09:47:08;;;;;;;1.15;1.00;;;25.60;33.10;;;;;;5052947;28;20028;-67
2023/06/04 09:49:44;;;;;;;1.05;0.95;;;25.50;30.00;;;;;;5051812;28;20441;-67
2023/06/04 09:52:12;;;;;;;0.65;0.65;;;25.50;34.10;;;;;;5052696;28;20110;-67
2023/06/04 09:54:41;;;;;;;3.58;1.00;;;25.50;34.50;;;;;;5052934;28;20037;-67
2023/06/04 09:57:17;;;;;;;1.50;0.95;;;25.40;34.50;;;;;;5051495;28;20569;-67
2023/06/04 09:59:46;;;;;;;1.83;1.02;;;25.40;35.20;;;;;;5053037;28;20029;-67
2023/06/04 10:02:13;;;;;;;2.70;1.05;;;25.30;35.30;;;;;;5051283;28;20107;-67
2023/06/04 10:04:42;;;;;;;1.70;0.70;;;25.40;33.40;;;;;;5052831;28;20029;-67
2023/06/04 10:07:11;;;;;;;1.83;1.20;;;25.30;35.20;;;;;;5052722;28;20064;-67
2023/06/04 10:09:45;;;;;;;1.13;0.60;;;25.40;35.60;;;;;;5035015;28;20420;-67
2023/06/04 10:12:16;;;;;;;1.02;0.90;;;25.30;35.70;;;;;;5052651;28;20033;-67
2023/06/04 10:15:01;;;;;;;1.27;0.90;;;25.30;35.90;;;;;;5052415;28;20070;-67
2023/06/04 10:17:29;;;;;;;0.85;0.70;;;25.30;35.80;;;;;;5052748;28;20037;-67
2023/06/04 10:19:57;;;;;;;0.68;0.68;;;25.30;35.80;;;;;;5052301;28;20080;-66
2023/06/04 10:22:24;;;;;;;1.20;0.80;;;25.40;35.20;;;;;;5052125;28;20052;-67
2023/06/04 10:24:51;;;;;;;6.40;0.90;;;25.30;36.00;;;;;;5052374;28;20129;-67
2023/06/04 10:27:20;;;;;;;1.48;0.90;;;25.30;34.40;;;;;;5051934;28;20483;-67
2023/06/04 10:29:46;;;;;;;0.88;0.82;;;25.30;36.00;;;;;;5052261;28;20033;-67
2023/06/04 10:32:12;;;;;;;1.52;0.73;;;25.30;34.00;;;;;;5051953;28;20044;-67
2023/06/04 10:34:38;;;;;;;5.45;1.02;;;25.30;35.70;;;;;;5051921;28;20032;-67
2023/06/04 10:37:06;;;;;;;0.93;0.75;;;25.30;35.70;;;;;;5052323;28;20459;-67
2023/06/04 10:39:32;;;;;;;1.60;0.82;;;25.40;35.30;;;;;;5052186;28;20029;-66
2023/06/04 10:42:03;;;;;;;0.60;0.60;;;25.30;35.70;;;;;;5051914;28;20178;-67
2023/06/04 10:44:45;;;;;;;0.50;0.50;;;25.30;36.30;;;;;;5052009;28;20045;-66
2023/06/04 10:47:31;;;;;;;0.77;0.77;;;25.40;36.40;;;;;;5052100;28;20118;-67
2023/06/04 10:50:11;;;;;;;0.70;0.70;;;25.50;36.50;;;;;;5051694;28;20112;-68
2023/06/04 10:52:39;;;;;;;6.20;1.17;;;25.50;36.20;;;;;;5051892;28;20024;-67
2023/06/04 10:55:09;;;;;;;1.33;0.93;;;25.40;34.30;;;;;;5051890;28;20032;-67
2023/06/04 10:57:36;;;;;;;0.75;0.60;;;25.50;35.50;;;;;;5051670;28;20029;-67
2023/06/04 11:00:06;;;;;;;0.80;0.80;;;25.40;36.20;;;;;;5051650;28;20029;-66
2023/06/04 11:02:32;;;;;;;0.70;0.70;;;25.60;36.00;;;;;;5051447;28;20454;-66
2023/06/04 11:05:08;;;;;;;3.72;0.63;;;25.40;36.80;;;;;;5051099;28;20119;-68
2023/06/04 11:07:43;;;;;;;2.22;1.00;;;25.50;36.90;;;;;;5049836;28;20533;-65
2023/06/04 11:10:10;;;;;;;0.95;0.65;;;25.50;36.90;;;;;;5050248;28;20061;-67
2023/06/04 11:12:43;;;;;;;0.93;0.80;;;25.60;36.70;;;;;;5051592;28;20460;-67
2023/06/04 11:15:09;;;;;;;;;;;25.60;35.20;;;;;;5050722;28;20033;-67
2023/06/04 11:17:36;;;;;;;5.53;0.90;;;25.50;36.60;;;;;;5051782;28;19953;-67
2023/06/04 11:20:02;;;;;;;0.85;0.70;;;25.50;36.50;;;;;;5051578;28;20048;-67
2023/06/04 11:22:28;;;;;;;3.60;1.00;;;25.50;36.80;;;;;;5051357;28;20041;-67
2023/06/04 11:25:00;;;;;;;0.63;0.63;;;25.60;35.80;;;;;;5050997;28;20562;-67
2023/06/04 11:27:26;;;;;;;2.10;0.90;;;25.60;37.20;;;;;;5051594;28;20121;-67
2023/06/04 11:29:52;;;;;;;0.75;0.70;;;25.60;37.10;;;;;;5051181;28;20469;-67
2023/06/04 11:32:25;;;;;;;0.90;0.90;;;25.70;37.20;;;;;;5051115;28;20043;-67
2023/06/04 11:34:51;;;;;;;4.18;0.80;;;25.60;36.50;;;;;;5051139;28;20039;-67
2023/06/04 11:37:17;;;;;;;1.90;0.70;;;25.60;37.10;;;;;;5051136;28;20039;-67
2023/06/04 11:39:44;;;;;;;4.22;1.10;;;25.60;36.80;;;;;;5049698;28;20045;-67
2023/06/04 11:42:10;;;;;;;0.88;0.75;;;25.70;35.70;;;;;;5050738;28;20044;-67
2023/06/04 11:44:36;;;;;;;1.40;0.85;;;25.50;37.30;;;;;;5051084;28;20033;-67
2023/06/04 11:47:08;;;;;;;3.35;1.30;;;25.70;35.50;;;;;;5049981;28;20037;-67
2023/06/04 11:49:36;;;;;;;3.63;1.27;;;25.70;37.20;;;;;;5051217;28;20033;-67
2023/06/04 11:52:02;;;;;;;0.95;0.88;;;25.70;36.50;;;;;;5050920;28;20090;-67
2023/06/04 11:54:28;;;;;;;1.00;0.90;;;25.60;36.30;;;;;;5051247;28;20033;-67
2023/06/04 11:56:54;;;;;;;2.40;1.05;;;25.70;37.40;;;;;;5032147;28;20052;-67
2023/06/04 11:59:20;;;;;;;2.88;0.90;;;25.70;37.30;;;;;;5048735;28;20132;-67
2023/06/04 12:01:48;;;;;;;2.03;0.85;;;25.60;37.60;;;;;;5050857;28;20037;-67
2023/06/04 12:04:16;;;;;;;0.65;0.65;;;25.60;37.50;;;;;;5049734;28;20037;-67
2023/06/04 12:07:02;;;;;;;2.05;0.98;;;25.70;37.60;;;;;;5050910;28;20481;-67
2023/06/04 12:09:37;;;;;;;0.85;0.77;;;25.60;37.60;;;;;;5050997;28;20037;-67
2023/06/04 12:12:05;;;;;;;1.42;1.13;;;25.70;37.00;;;;;;5050756;28;20032;-67
2023/06/04 12:14:32;;;;;;;2.15;0.90;;;25.70;37.30;;;;;;5050922;28;20469;-67
2023/06/04 12:17:00;;;;;;;1.98;1.00;;;25.70;37.10;;;;;;5050741;28;20029;-67
2023/06/04 12:19:27;;;;;;;1.58;0.80;;;25.60;36.30;;;;;;5051028;28;20865;-67
2023/06/04 12:22:04;;;;;;;1.40;0.80;;;25.70;37.70;;;;;;5050455;28;20037;-67
2023/06/04 12:24:32;;;;;;;10.02;5.43;;;25.60;37.70;;;;;;5050798;28;20063;-67
2023/06/04 12:27:27;;;;;;;4.25;2.33;;;25.70;37.90;;;;;;5050546;28;20037;-67
2023/06/04 12:30:07;;;;;;;1.70;1.08;;;25.60;37.90;;;;;;5008336;28;20128;-67
2023/06/04 12:32:36;;;;;;;4.38;2.58;;;25.70;35.90;;;;;;4991884;28;20034;-67
2023/06/04 12:35:02;;;;;;;1.10;1.00;;;25.70;37.30;;;;;;5008409;28;20161;-67
2023/06/04 12:37:28;;;;;;;1.92;1.30;;;25.60;35.80;;;;;;5008617;28;20033;-67
2023/06/04 12:39:55;;;;;;;1.65;1.35;;;25.60;34.00;;;;;;5008543;28;20037;-66
2023/06/04 12:42:21;;;;;;;2.00;0.90;;;25.60;36.50;;;;;;5008199;28;20567;-67
2023/06/04 12:44:47;;;;;;;4.05;1.30;;;25.60;37.30;;;;;;5008557;28;20410;-67
2023/06/04 12:47:14;;;;;;;4.82;1.65;;;25.70;37.20;;;;;;5008370;28;20050;-67
2023/06/04 12:49:40;;;;;;;3.72;2.50;;;25.70;36.00;;;;;;5008478;28;20441;-66
2023/06/04 12:52:06;;;;;;;1.98;1.20;;;25.70;37.80;;;;;;5010376;28;20116;-68
2023/06/04 12:54:32;;;;;;;1.20;0.80;;;25.60;37.70;;;;;;5011930;28;20084;-67